Time;durP1;ratioP1;P1;durP2;ratioP2;P2;SDS_P1;SDS_P2;PMS_P1;PMS_P2;Temp;Humidity;BMP_temperature;BMP_pressure;BME280_temperature;BME280_humidity;BME280_pressure;Samples;Min_cycle;Max_cycle;Signal;HPM_P1;HPM_P2
2022/10/24 00:00:35;;;;;;;9.02;4.70;;;;;;;19.47;63.26;100689.88;4972544;28;97716;-70
2022/10/24 00:03:02;;;;;;;8.15;5.03;;;;;;;19.09;64.59;100691.78;4973189;28;97312;-71
2022/10/24 00:05:28;;;;;;;5.63;4.45;;;;;;;19.02;65.38;100694.03;4974062;28;98935;-70
2022/10/24 00:07:55;;;;;;;9.32;4.53;;;;;;;19.21;64.33;100715.00;4970657;28;99291;-70
2022/10/24 00:10:21;;;;;;;7.72;4.97;;;;;;;18.99;65.02;100706.78;4971497;28;96843;-70
2022/10/24 00:12:48;;;;;;;8.10;4.90;;;;;;;18.91;65.83;100717.16;4970410;28;97399;-69
2022/10/24 00:15:15;;;;;;;8.05;4.18;;;;;;;18.79;65.78;100712.66;4969554;28;99318;-70
2022/10/24 00:17:43;;;;;;;8.48;4.55;;;;;;;18.61;67.09;100709.47;4969654;28;99043;-70
2022/10/24 00:20:10;;;;;;;8.02;4.85;;;;;;;18.43;67.81;100713.38;4967275;28;96800;-71
2022/10/24 00:22:36;;;;;;;8.50;4.78;;;;;;;18.77;66.64;100718.16;4968833;28;98816;-71
2022/10/24 00:25:03;;;;;;;7.72;5.07;;;;;;;18.76;66.64;100724.47;4966156;28;99248;-70
2022/10/24 00:27:30;;;;;;;11.20;5.30;;;;;;;18.65;67.00;100725.19;4971014;28;99117;-69
2022/10/24 00:29:56;;;;;;;9.52;4.90;;;;;;;18.67;67.27;100719.75;4973686;28;96937;-71
2022/10/24 00:32:23;;;;;;;10.48;5.03;;;;;;;18.54;67.51;100709.00;4972523;28;97182;-70
2022/10/24 00:34:51;;;;;;;8.48;4.85;;;;;;;18.61;67.28;100713.00;4972159;28;97905;-70
2022/10/24 00:37:17;;;;;;;9.73;6.13;;;;;;;18.57;67.70;100713.31;4968139;28;99148;-69
2022/10/24 00:39:44;;;;;;;11.57;5.78;;;;;;;18.61;67.40;100707.66;4968679;28;96851;-70
2022/10/24 00:42:13;;;;;;;11.60;6.28;;;;;;;18.44;68.33;100705.25;4976158;28;98589;-71
2022/10/24 00:44:42;;;;;;;7.15;5.50;;;;;;;18.53;67.69;100707.28;4970494;28;102341;-70
2022/10/24 00:47:12;;;;;;;12.25;5.95;;;;;;;18.27;68.91;100717.09;4969833;28;98795;-70
2022/10/24 00:49:45;;;;;;;11.25;6.18;;;;;;;18.19;68.67;100716.75;4968496;28;96867;-70
2022/10/24 00:52:14;;;;;;;10.65;5.53;;;;;;;18.42;68.07;100731.25;4973298;28;97934;-69
2022/10/24 00:54:42;;;;;;;8.20;6.03;;;;;;;18.31;68.62;100733.81;4971794;28;99110;-70
2022/10/24 00:57:14;;;;;;;12.38;6.10;;;;;;;18.45;68.10;100732.84;4974346;28;99413;-71
2022/10/24 00:59:43;;;;;;;12.73;5.90;;;;;;;18.33;68.37;100751.44;4973724;28;96828;-70
2022/10/24 01:02:10;;;;;;;9.57;5.90;;;;;;;18.23;69.17;100752.19;4972719;28;97567;-70
2022/10/24 01:04:36;;;;;;;13.77;6.63;;;;;;;18.32;68.47;100755.06;4971112;28;99013;-69
2022/10/24 01:07:15;;;;;;;10.95;5.45;;;;;;;18.47;67.90;100765.72;4974024;28;99467;-70
2022/10/24 01:10:01;;;;;;;12.00;5.80;;;;;;;18.38;68.30;100761.00;4979339;28;96818;-70
2022/10/24 01:12:37;;;;;;;13.30;5.87;;;;;;;18.55;67.70;100758.91;4975920;28;97131;-71
2022/10/24 01:15:13;;;;;;;11.68;5.88;;;;;;;18.32;68.25;100751.53;4966658;28;99263;-72
2022/10/24 01:17:46;;;;;;;12.57;6.60;;;;;;;18.46;68.06;100743.44;4972225;28;99190;-71
2022/10/24 01:20:44;;;;;;;13.80;5.95;;;;;;;18.43;68.21;100745.47;4968711;28;98804;-71
2022/10/24 01:23:35;;;;;;;12.70;5.68;;;;;;;18.37;68.66;100738.75;4970598;28;97067;-70
2022/10/24 01:26:18;;;;;;;9.45;5.60;;;;;;;18.48;68.00;100751.38;4955401;28;99087;-70
2022/10/24 01:28:54;;;;;;;8.68;5.63;;;;;;;18.31;68.88;100739.16;4973477;28;97669;-70
2022/10/24 01:31:28;;;;;;;9.53;5.80;;;;;;;18.61;67.75;100714.81;4971099;28;98677;-70
2022/10/24 01:33:59;;;;;;;10.85;5.32;;;;;;;18.74;67.22;100702.28;4972896;28;98985;-70
2022/10/24 01:36:34;;;;;;;9.57;5.45;;;;;;;18.40;68.15;100693.03;4974242;28;99367;-70
2022/10/24 01:39:06;;;;;;;7.53;5.40;;;;;;;18.60;67.22;100697.91;4967838;28;98059;-71
2022/10/24 01:41:33;;;;;;;8.30;5.18;;;;;;;18.71;66.99;100708.69;4973407;28;96788;-70
2022/10/24 01:44:05;;;;;;;8.73;5.13;;;;;;;18.54;67.89;100709.00;4972263;28;96849;-70
2022/10/24 01:46:38;;;;;;;9.05;5.82;;;;;;;18.45;67.99;100693.56;4974391;28;99697;-70
2022/10/24 01:49:10;;;;;;;14.25;5.50;;;;;;;18.42;68.22;100688.44;4978623;28;99117;-70
2022/10/24 01:51:38;;;;;;;8.70;5.57;;;;;;;18.17;68.80;100689.28;4972720;28;96848;-70
2022/10/24 01:54:07;;;;;;;7.70;4.90;;;;;;;18.10;69.40;100700.47;4973044;28;96782;-70
2022/10/24 01:56:33;;;;;;;8.27;5.38;;;;;;;18.24;69.02;100679.00;4977047;28;99155;-69
2022/10/24 01:59:45;;;;;;;12.20;5.63;;;;;;;18.12;69.11;100669.13;4976472;28;99018;-70
2022/10/24 02:02:17;;;;;;;8.95;5.50;;;;;;;18.29;68.93;100663.50;4971563;28;97238;-71
2022/10/24 02:04:49;;;;;;;8.38;5.43;;;;;;;18.00;69.47;100660.13;4973620;28;97232;-69
2022/10/24 02:07:19;;;;;;;11.00;5.88;;;;;;;18.12;69.30;100656.59;4972594;28;99093;-71
2022/10/24 02:09:52;;;;;;;9.70;5.20;;;;;;;18.09;69.41;100662.19;4970385;28;99196;-71
2022/10/24 02:12:23;;;;;;;7.63;5.43;;;;;;;18.26;68.25;100661.03;4970859;28;97267;-70
2022/10/24 02:14:53;;;;;;;10.68;5.50;;;;;;;18.29;68.03;100658.16;4976407;28;97687;-70
2022/10/24 02:17:22;;;;;;;12.63;5.38;;;;;;;18.14;68.74;100654.69;4974748;28;99209;-70
2022/10/24 02:19:49;;;;;;;8.65;5.13;;;;;;;18.23;68.25;100645.19;4973245;28;98792;-70
2022/10/24 02:22:23;;;;;;;12.85;4.78;;;;;;;18.32;67.99;100642.72;4971646;28;98147;-69
2022/10/24 02:24:55;;;;;;;8.40;4.93;;;;;;;18.15;68.45;100661.75;4971203;28;96845;-70
2022/10/24 02:27:25;;;;;;;9.48;5.40;;;;;;;18.15;68.61;100655.56;4969397;28;99163;-70
2022/10/24 02:29:57;;;;;;;10.88;5.15;;;;;;;18.14;68.63;100653.84;4970199;28;99067;-71
2022/10/24 02:32:29;;;;;;;9.77;5.13;;;;;;;18.23;68.35;100655.91;4976817;28;96830;-71
2022/10/24 02:34:57;;;;;;;10.57;5.00;;;;;;;18.15;68.49;100659.09;4972337;28;97031;-72
2022/10/24 02:37:26;;;;;;;8.18;5.03;;;;;;;18.15;68.46;100651.06;4973983;28;99125;-69
2022/10/24 02:39:56;;;;;;;7.90;4.95;;;;;;;18.29;68.13;100642.09;4971337;28;97487;-70
2022/10/24 02:42:24;;;;;;;9.23;5.32;;;;;;;18.14;67.91;100635.13;4977747;28;97275;-70
2022/10/24 02:44:51;;;;;;;12.68;5.32;;;;;;;18.19;67.82;100635.66;4972078;28;97683;-70
2022/10/24 02:47:21;;;;;;;8.82;4.70;;;;;;;18.14;68.30;100638.66;4974829;28;99068;-70
2022/10/24 02:49:49;;;;;;;8.48;4.88;;;;;;;17.92;68.90;100638.38;4974402;28;101289;-70
2022/10/24 02:52:15;;;;;;;9.45;5.30;;;;;;;17.82;69.16;100632.81;4975261;28;99150;-70
2022/10/24 02:54:42;;;;;;;10.93;5.63;;;;;;;17.97;68.95;100646.97;4973724;28;97118;-70
2022/10/24 02:57:08;;;;;;;13.07;5.80;;;;;;;17.90;68.62;100651.88;4973799;28;98273;-71
2022/10/24 02:59:35;;;;;;;11.93;5.63;;;;;;;17.93;68.88;100637.44;4971843;28;98831;-70
2022/10/24 03:02:01;;;;;;;7.97;5.00;;;;;;;17.89;68.82;100631.44;4973197;28;97847;-70
2022/10/24 03:04:27;;;;;;;7.80;4.72;;;;;;;17.91;68.76;100629.53;4974187;28;97466;-71
2022/10/24 03:06:55;;;;;;;11.15;4.72;;;;;;;17.96;68.54;100641.72;4972758;28;98860;-70
2022/10/24 03:09:22;;;;;;;7.40;4.65;;;;;;;18.02;68.41;100627.94;4974948;28;99124;-70
2022/10/24 03:11:48;;;;;;;6.38;4.35;;;;;;;17.97;68.15;100627.41;4972992;28;97633;-71
2022/10/24 03:14:15;;;;;;;8.88;4.63;;;;;;;17.91;68.46;100637.56;4970521;28;99136;-71
2022/10/24 03:16:41;;;;;;;7.75;4.90;;;;;;;17.96;68.14;100641.72;4976066;28;101946;-72
2022/10/24 03:19:07;;;;;;;9.85;5.13;;;;;;;18.07;68.01;100633.81;4972555;28;98888;-71
2022/10/24 03:21:34;;;;;;;7.30;4.00;;;;;;;17.90;68.19;100649.22;4971178;28;97171;-71
2022/10/24 03:24:02;;;;;;;9.45;4.63;;;;;;;18.02;68.15;100646.66;4966709;28;96831;-70
2022/10/24 03:26:28;;;;;;;7.95;4.40;;;;;;;18.02;68.01;100635.97;4978600;28;99592;-71
2022/10/24 03:28:54;;;;;;;7.65;4.35;;;;;;;17.88;68.21;100644.91;4973074;28;99003;-71
2022/10/24 03:31:21;;;;;;;8.43;4.25;;;;;;;18.01;68.02;100645.78;4966970;28;97588;-71
2022/10/24 03:33:50;;;;;;;5.93;4.43;;;;;;;17.84;68.30;100646.09;4971319;28;96876;-70
2022/10/24 03:36:17;;;;;;;8.75;4.57;;;;;;;17.87;68.29;100649.41;4971065;28;99200;-70
2022/10/24 03:38:44;;;;;;;6.72;4.05;;;;;;;17.97;67.83;100646.13;4970064;28;98820;-71
2022/10/24 03:41:11;;;;;;;7.95;4.03;;;;;;;17.87;67.95;100645.88;4970996;28;96745;-70
2022/10/24 03:43:38;;;;;;;7.13;3.72;;;;;;;17.77;68.34;100640.31;4972022;28;96902;-70
2022/10/24 03:46:05;;;;;;;8.35;4.13;;;;;;;17.75;68.06;100634.19;4971515;28;99206;-70
2022/10/24 03:48:31;;;;;;;7.45;4.45;;;;;;;17.70;68.64;100644.34;4971623;28;98151;-70
2022/10/24 03:50:57;;;;;;;8.82;3.95;;;;;;;17.95;67.93;100642.69;4971301;28;96973;-70
2022/10/24 03:53:24;;;;;;;7.70;3.88;;;;;;;17.78;68.16;100636.66;4975938;28;96864;-70
2022/10/24 03:55:50;;;;;;;11.98;4.45;;;;;;;17.82;68.25;100646.19;4970191;28;99224;-70
2022/10/24 03:58:18;;;;;;;8.63;3.95;;;;;;;17.76;68.39;100645.75;4969671;28;100649;-71
2022/10/24 04:00:45;;;;;;;11.18;4.03;;;;;;;17.84;68.08;100644.28;4971774;28;97382;-71
2022/10/24 04:03:11;;;;;;;5.93;3.65;;;;;;;17.65;68.45;100649.13;4972566;28;96989;-71
2022/10/24 04:05:38;;;;;;;7.22;4.20;;;;;;;17.61;68.62;100649.41;4973668;28;100103;-70
2022/10/24 04:08:05;;;;;;;4.90;3.83;;;;;;;17.63;68.55;100651.03;4972038;28;98945;-70
2022/10/24 04:10:32;;;;;;;11.00;3.78;;;;;;;17.79;67.85;100648.19;4975743;28;96864;-70
2022/10/24 04:12:58;;;;;;;7.30;3.45;;;;;;;17.66;68.71;100640.13;4964266;28;98177;-71
2022/10/24 04:15:26;;;;;;;8.27;4.13;;;;;;;17.68;68.68;100648.06;4968224;28;99321;-70
2022/10/24 04:17:53;;;;;;;4.75;3.50;;;;;;;17.82;68.45;100640.84;4971089;28;99107;-71
2022/10/24 04:20:21;;;;;;;6.93;3.80;;;;;;;17.74;68.31;100640.50;4968962;28;99020;-70
2022/10/24 04:22:47;;;;;;;9.95;3.70;;;;;;;17.63;68.38;100629.66;4971424;28;96983;-70
2022/10/24 04:25:15;;;;;;;7.72;4.10;;;;;;;17.96;67.53;100641.72;4970166;28;99431;-72
2022/10/24 04:27:41;;;;;;;7.65;3.80;;;;;;;17.81;68.09;100633.78;4973494;28;99184;-71
2022/10/24 04:30:10;;;;;;;8.05;3.60;;;;;;;17.74;67.71;100632.47;4966820;28;96908;-70
2022/10/24 04:32:38;;;;;;;8.52;3.63;;;;;;;17.80;67.58;100641.88;4973421;28;96888;-71
2022/10/24 04:35:05;;;;;;;6.13;3.47;;;;;;;17.87;67.56;100640.53;4970522;28;102345;-70
2022/10/24 04:37:32;;;;;;;10.80;3.08;;;;;;;17.60;68.40;100645.84;4971964;28;99129;-69
2022/10/24 04:39:59;;;;;;;7.03;3.53;;;;;;;17.61;68.50;100646.75;4969802;28;96847;-70
2022/10/24 04:42:25;;;;;;;12.45;3.85;;;;;;;17.62;68.78;100643.13;4969339;28;98831;-71
2022/10/24 04:44:52;;;;;;;8.32;3.55;;;;;;;17.54;68.86;100640.91;4970704;28;99419;-70
2022/10/24 04:47:18;;;;;;;8.52;3.92;;;;;;;17.56;68.88;100641.69;4971529;28;98881;-71
2022/10/24 04:49:46;;;;;;;12.18;4.07;;;;;;;17.67;68.42;100641.84;4966523;28;97471;-69
2022/10/24 04:52:13;;;;;;;8.32;3.95;;;;;;;17.44;69.47;100634.47;4969909;28;97004;-69
2022/10/24 04:54:39;;;;;;;9.07;3.95;;;;;;;17.68;68.49;100638.22;4962769;28;99210;-70
2022/10/24 04:57:06;;;;;;;4.55;3.58;;;;;;;17.70;68.28;100649.69;4963405;28;99046;-70
2022/10/24 04:59:32;;;;;;;7.15;3.45;;;;;;;17.68;68.46;100646.25;4968846;28;97291;-70
2022/10/24 05:01:59;;;;;;;6.47;3.70;;;;;;;17.69;68.43;100649.78;4967523;28;97026;-71
2022/10/24 05:04:25;;;;;;;9.63;3.20;;;;;;;17.71;68.26;100658.56;4970642;28;99256;-70
2022/10/24 05:06:53;;;;;;;6.05;3.65;;;;;;;17.72;68.45;100666.44;4970616;28;98880;-70
2022/10/24 05:09:19;;;;;;;7.93;3.30;;;;;;;17.84;68.16;100664.81;4971658;28;96724;-70
2022/10/24 05:11:45;;;;;;;9.70;4.22;;;;;;;17.81;68.24;100673.00;4969685;28;96849;-71
2022/10/24 05:14:13;;;;;;;6.80;3.78;;;;;;;17.83;68.29;100671.97;4973591;28;98265;-70
2022/10/24 05:16:40;;;;;;;10.25;3.80;;;;;;;17.96;67.74;100672.00;4966098;28;99540;-69
2022/10/24 05:19:08;;;;;;;7.95;3.47;;;;;;;17.77;68.39;100669.69;4967771;28;96822;-70
2022/10/24 05:21:35;;;;;;;7.22;3.30;;;;;;;17.77;68.47;100659.00;4970700;28;97682;-71
2022/10/24 05:24:02;;;;;;;7.15;3.83;;;;;;;17.76;68.37;100657.28;4972546;28;99249;-70
2022/10/24 05:26:29;;;;;;;10.13;3.80;;;;;;;17.84;67.94;100665.66;4970761;28;99149;-69
2022/10/24 05:28:55;;;;;;;6.45;3.47;;;;;;;17.88;67.99;100664.47;4974299;28;96666;-70
2022/10/24 05:31:22;;;;;;;6.43;3.67;;;;;;;18.08;67.33;100668.50;4972687;28;96931;-70
2022/10/24 05:33:48;;;;;;;10.02;3.47;;;;;;;17.82;68.08;100667.56;4973336;28;97898;-70
2022/10/24 05:36:14;;;;;;;10.18;4.18;;;;;;;17.47;69.41;100669.84;4976766;28;98233;-70
2022/10/24 05:38:41;;;;;;;9.40;3.83;;;;;;;17.89;67.68;100663.53;4976899;28;96790;-70
2022/10/24 05:41:09;;;;;;;11.20;3.55;;;;;;;17.97;67.48;100656.81;4981841;28;97357;-69
2022/10/24 05:43:35;;;;;;;7.03;3.80;;;;;;;17.92;67.62;100660.63;4973858;28;97714;-71
2022/10/24 05:46:02;;;;;;;7.22;3.45;;;;;;;17.91;67.63;100663.44;4976554;28;99040;-71
2022/10/24 05:48:28;;;;;;;7.50;3.80;;;;;;;17.87;67.54;100653.88;4984980;28;98761;-70
2022/10/24 05:50:57;;;;;;;6.55;3.63;;;;;;;17.99;67.15;100653.06;4974977;28;97476;-71
2022/10/24 05:53:23;;;;;;;9.07;3.60;;;;;;;17.99;66.86;100649.53;4972800;28;98193;-71
2022/10/24 05:55:50;;;;;;;6.35;3.50;;;;;;;18.10;66.95;100641.66;4974529;28;98904;-70
2022/10/24 05:58:20;;;;;;;7.63;3.45;;;;;;;18.01;67.24;100636.91;4973433;28;96777;-70
2022/10/24 06:00:46;;;;;;;9.27;3.88;;;;;;;17.91;67.54;100656.28;4971811;28;96854;-72
2022/10/24 06:03:13;;;;;;;5.88;3.90;;;;;;;17.98;67.35;100654.03;4973120;28;99039;-71
2022/10/24 06:05:39;;;;;;;6.22;3.72;;;;;;;17.96;67.45;100655.94;4974182;28;98081;-71
2022/10/24 06:08:06;;;;;;;11.10;4.55;;;;;;;18.19;66.54;100638.31;4969852;28;97025;-72
2022/10/24 06:10:33;;;;;;;9.00;4.65;;;;;;;17.87;67.43;100637.84;4979766;28;96996;-70
2022/10/24 06:12:59;;;;;;;10.20;4.38;;;;;;;17.97;66.90;100635.44;4973082;28;98364;-71
2022/10/24 06:15:27;;;;;;;14.65;4.30;;;;;;;17.95;67.05;100640.00;4974158;28;101391;-70
2022/10/24 06:17:53;;;;;;;13.40;4.32;;;;;;;18.18;66.45;100626.78;4975667;28;97711;-70
2022/10/24 06:20:20;;;;;;;8.60;4.07;;;;;;;18.36;65.70;100627.34;4976134;28;97087;-71
2022/10/24 06:22:48;;;;;;;9.50;3.92;;;;;;;18.20;66.18;100632.88;4973587;28;99584;-70
2022/10/24 06:25:14;;;;;;;10.20;4.50;;;;;;;18.33;65.95;100632.88;4972336;28;99554;-71
2022/10/24 06:27:41;;;;;;;10.43;4.82;;;;;;;18.19;66.19;100632.97;4973491;28;97171;-71
2022/10/24 06:30:11;;;;;;;6.63;4.00;;;;;;;18.37;65.40;100637.09;4976284;28;96939;-71
2022/10/24 06:32:40;;;;;;;9.23;4.35;;;;;;;18.19;66.34;100643.69;4972612;28;101316;-71
2022/10/24 06:35:07;;;;;;;9.00;4.72;;;;;;;18.35;65.74;100643.50;4967806;28;99169;-70
2022/10/24 06:37:35;;;;;;;10.70;4.60;;;;;;;18.24;65.97;100638.91;4967753;28;97294;-72
2022/10/24 06:40:01;;;;;;;13.88;5.55;;;;;;;18.28;65.98;100637.72;4968827;28;96963;-72
2022/10/24 06:42:29;;;;;;;14.15;5.25;;;;;;;18.32;65.56;100640.06;4969002;28;99318;-71
2022/10/24 06:44:55;;;;;;;11.70;4.50;;;;;;;17.98;66.57;100655.84;4969902;28;97907;-72
2022/10/24 06:47:21;;;;;;;15.05;6.25;;;;;;;18.06;66.94;100648.16;4970527;28;96761;-72
2022/10/24 06:49:49;;;;;;;7.97;4.30;;;;;;;18.00;66.83;100641.41;4969671;28;97342;-72
2022/10/24 06:52:15;;;;;;;12.50;4.50;;;;;;;18.10;66.89;100652.34;4968718;28;101873;-71
2022/10/24 06:54:42;;;;;;;12.60;4.47;;;;;;;18.01;66.87;100652.97;4968702;28;102447;-72
2022/10/24 06:57:09;;;;;;;16.30;4.53;;;;;;;18.14;66.67;100660.03;4971972;28;97437;-72
2022/10/24 06:59:38;;;;;;;11.38;4.88;;;;;;;18.05;67.00;100666.00;4967750;28;97077;-72
2022/10/24 07:02:05;;;;;;;9.82;4.40;;;;;;;18.35;66.10;100671.09;4971564;28;98923;-72
2022/10/24 07:04:31;;;;;;;9.20;4.10;;;;;;;18.16;66.68;100670.66;4968059;28;99669;-72
2022/10/24 07:06:59;;;;;;;10.23;4.57;;;;;;;18.22;66.58;100680.91;4967163;28;97205;-72
2022/10/24 07:09:27;;;;;;;11.02;4.75;;;;;;;18.26;66.30;100682.41;4972661;28;97892;-72
2022/10/24 07:11:54;;;;;;;12.68;5.05;;;;;;;18.51;65.94;100693.13;4968312;28;99189;-72
2022/10/24 07:14:20;;;;;;;10.80;4.35;;;;;;;18.24;66.56;100695.06;4969285;28;98777;-71
2022/10/24 07:16:46;;;;;;;11.00;4.68;;;;;;;18.70;65.33;100698.13;4971773;28;97310;-74
2022/10/24 07:19:13;;;;;;;18.88;4.47;;;;;;;18.65;65.57;100684.19;4972026;28;97011;-73
2022/10/24 07:21:40;;;;;;;13.13;4.63;;;;;;;18.63;65.51;100684.31;4967553;28;97977;-73
2022/10/24 07:24:11;;;;;;;9.82;4.60;;;;;;;18.85;64.91;100682.78;4969234;28;99211;-73
2022/10/24 07:26:39;;;;;;;11.25;4.68;;;;;;;18.77;65.35;100678.00;4971113;28;96975;-72
2022/10/24 07:29:05;;;;;;;11.80;4.35;;;;;;;18.84;65.07;100683.78;4971302;28;97128;-71
2022/10/24 07:31:33;;;;;;;13.38;4.10;;;;;;;18.80;65.32;100690.28;4969653;28;99260;-72
2022/10/24 07:34:01;;;;;;;18.95;4.00;;;;;;;18.96;65.06;100681.09;4968763;28;99038;-72
2022/10/24 07:36:29;;;;;;;10.85;4.10;;;;;;;18.82;65.39;100691.91;4969623;28;97563;-72
2022/10/24 07:38:57;;;;;;;11.95;3.55;;;;;;;18.94;65.46;100684.81;4973179;28;97630;-72
2022/10/24 07:41:27;;;;;;;9.93;4.05;;;;;;;19.30;64.04;100676.81;4963231;28;99430;-72
2022/10/24 07:43:54;;;;;;;8.57;3.92;;;;;;;19.24;64.46;100684.44;4967722;28;101957;-72
2022/10/24 07:46:22;;;;;;;9.80;3.45;;;;;;;19.26;64.01;100693.22;4966467;28;96905;-71
2022/10/24 07:48:49;;;;;;;9.93;3.38;;;;;;;19.52;63.63;100696.72;4970606;28;97528;-71
2022/10/24 07:51:17;;;;;;;16.27;3.97;;;;;;;19.50;63.71;100688.78;4965764;28;98826;-72
2022/10/24 07:53:44;;;;;;;9.95;4.30;;;;;;;19.52;63.71;100688.69;4970144;28;102469;-72
2022/10/24 07:56:13;;;;;;;9.13;3.67;;;;;;;19.58;62.74;100688.22;4971705;28;96822;-73
2022/10/24 07:58:42;;;;;;;11.38;3.92;;;;;;;19.64;62.71;100693.13;4968359;28;96902;-73
2022/10/24 08:01:12;;;;;;;11.27;3.80;;;;;;;19.93;62.56;100694.50;4973500;28;99366;-71
2022/10/24 08:03:38;;;;;;;15.15;3.97;;;;;;;19.70;62.66;100688.16;4952573;28;99555;-72
2022/10/24 08:06:05;;;;;;;9.13;3.17;;;;;;;20.03;62.30;100684.78;4969470;28;97779;-71
2022/10/24 08:08:32;;;;;;;8.93;3.58;;;;;;;19.97;62.01;100685.25;4969719;28;96979;-71
2022/10/24 08:10:58;;;;;;;14.98;2.85;;;;;;;20.03;61.73;100684.78;4971364;28;98939;-72
2022/10/24 08:13:25;;;;;;;11.88;3.70;;;;;;;19.99;62.20;100688.69;4971367;28;98331;-71
2022/10/24 08:15:55;;;;;;;9.48;3.63;;;;;;;19.97;61.80;100677.22;4968941;28;96831;-73
2022/10/24 08:18:21;;;;;;;15.68;3.80;;;;;;;20.18;62.04;100688.13;4970970;28;97793;-72
2022/10/24 08:20:56;;;;;;;7.45;3.08;;;;;;;20.26;61.40;100691.09;4973138;28;99521;-72
2022/10/24 08:23:23;;;;;;;11.00;2.90;;;;;;;20.27;61.67;100676.72;4964837;28;98292;-71
2022/10/24 08:25:49;;;;;;;12.02;3.13;;;;;;;20.20;61.36;100681.69;4967290;28;97302;-71
2022/10/24 08:28:16;;;;;;;12.13;3.50;;;;;;;20.43;60.88;100684.44;4969832;28;96938;-72
2022/10/24 08:30:42;;;;;;;13.18;3.13;;;;;;;20.51;60.81;100682.03;4968208;28;99411;-72
2022/10/24 08:33:10;;;;;;;19.48;6.15;;;;;;;20.78;60.02;100684.41;4969749;28;97685;-72
2022/10/24 08:35:37;;;;;;;9.27;3.30;;;;;;;20.97;59.99;100680.13;4969160;28;98046;-72
2022/10/24 08:38:03;;;;;;;10.32;3.28;;;;;;;20.96;59.74;100678.41;4964868;28;96842;-71
2022/10/24 08:40:30;;;;;;;13.07;3.03;;;;;;;20.86;59.64;100677.44;4966078;28;97901;-72
2022/10/24 08:42:57;;;;;;;10.18;3.03;;;;;;;20.96;59.28;100678.41;4967464;28;101369;-72
2022/10/24 08:45:35;;;;;;;16.50;3.10;;;;;;;21.06;59.23;100690.16;4973450;28;97579;-70
2022/10/24 08:48:07;;;;;;;11.90;3.40;;;;;;;21.04;59.09;100684.03;4971492;28;97387;-70
2022/10/24 08:50:41;;;;;;;17.80;3.22;;;;;;;21.23;58.92;100678.06;4963856;28;99377;-69
2022/10/24 08:53:13;;;;;;;10.07;2.75;;;;;;;21.16;58.95;100670.63;4962549;28;98154;-71
2022/10/24 08:55:43;;;;;;;10.80;3.00;;;;;;;21.04;58.79;100675.97;4963727;28;97750;-70
2022/10/24 08:58:15;;;;;;;9.55;3.25;;;;;;;20.97;59.78;100668.53;4964648;28;97424;-71
2022/10/24 09:00:43;;;;;;;12.82;3.17;;;;;;;21.14;59.34;100664.47;4967203;28;99222;-70
2022/10/24 09:03:17;;;;;;;13.80;2.97;;;;;;;21.22;58.97;100657.53;4963067;28;99290;-70
2022/10/24 09:05:49;;;;;;;16.23;2.95;;;;;;;21.37;58.47;100647.38;4968863;28;97403;-71
2022/10/24 09:08:27;;;;;;;20.73;3.47;;;;;;;21.36;58.30;100657.28;4966141;28;96982;-70
2022/10/24 09:10:58;;;;;;;13.30;3.03;;;;;;;21.47;58.21;100656.38;4968913;28;99609;-71
2022/10/24 09:13:27;;;;;;;12.88;3.40;;;;;;;21.54;58.04;100657.59;4970513;28;99264;-69
2022/10/24 09:15:53;;;;;;;12.55;4.50;;;;;;;21.51;58.00;100659.69;4972196;28;97202;-71
2022/10/24 09:18:22;;;;;;;14.98;3.45;;;;;;;21.48;58.12;100666.16;4972776;28;97980;-70
2022/10/24 09:20:53;;;;;;;11.95;3.58;;;;;;;21.21;58.93;100660.34;4970407;28;99003;-72
2022/10/24 09:23:23;;;;;;;17.58;2.60;;;;;;;21.28;58.62;100666.94;4972291;28;100164;-70
2022/10/24 09:25:54;;;;;;;9.70;2.33;;;;;;;21.16;58.85;100663.41;4968103;28;97404;-70
2022/10/24 09:28:20;;;;;;;10.50;3.00;;;;;;;21.37;58.75;100667.06;4969219;28;97643;-70
2022/10/24 09:30:48;;;;;;;9.40;2.60;;;;;;;21.46;58.39;100663.59;4972931;28;99964;-71
2022/10/24 09:33:27;;;;;;;11.27;2.95;;;;;;;21.36;58.61;100665.34;4967670;28;99130;-70
2022/10/24 09:35:58;;;;;;;14.05;3.03;;;;;;;21.44;58.40;100668.25;4972006;28;96805;-70
2022/10/24 09:38:30;;;;;;;16.85;3.22;;;;;;;21.68;57.66;100657.31;4967709;28;98213;-69
2022/10/24 09:41:01;;;;;;;18.13;5.47;;;;;;;21.65;57.73;100668.34;4970894;28;99926;-69
2022/10/24 09:43:33;;;;;;;17.08;3.78;;;;;;;21.77;57.41;100658.38;4969191;28;99699;-69
2022/10/24 09:46:03;;;;;;;10.45;2.75;;;;;;;21.73;57.08;100660.47;4971808;28;97413;-71
2022/10/24 09:48:36;;;;;;;14.25;3.30;;;;;;;22.07;56.53;100649.59;4972080;28;99229;-71
2022/10/24 09:51:06;;;;;;;15.43;3.28;;;;;;;21.88;56.51;100659.19;4969495;28;98919;-70
2022/10/24 09:53:36;;;;;;;13.05;2.95;;;;;;;21.95;56.45;100669.44;4969924;28;98614;-70
2022/10/24 09:56:09;;;;;;;17.20;3.35;;;;;;;21.95;56.76;100664.06;4966933;28;96861;-70
2022/10/24 09:58:35;;;;;;;12.82;2.17;;;;;;;22.02;56.61;100667.97;4963765;28;98379;-70
2022/10/24 10:01:05;;;;;;;13.07;2.92;;;;;;;22.00;56.67;100673.47;4972193;28;99213;-70
2022/10/24 10:03:33;;;;;;;10.85;2.60;;;;;;;22.00;56.58;100667.22;4969232;28;99443;-70
2022/10/24 10:06:04;;;;;;;13.13;2.10;;;;;;;22.08;56.56;100667.44;4969672;28;98515;-68
2022/10/24 10:08:35;;;;;;;11.65;3.10;;;;;;;22.18;55.66;100668.41;4971857;28;97186;-70
2022/10/24 10:11:05;;;;;;;11.52;2.42;;;;;;;22.23;56.02;100660.78;4967968;28;98908;-69
2022/10/24 10:13:39;;;;;;;16.15;2.65;;;;;;;22.23;56.27;100661.63;4973542;28;97268;-72
2022/10/24 10:16:07;;;;;;;15.88;2.58;;;;;;;22.29;55.31;100657.56;4972603;28;97322;-73
2022/10/24 10:18:44;;;;;;;10.13;2.38;;;;;;;22.34;55.68;100663.38;4968514;28;96880;-71
2022/10/24 10:21:13;;;;;;;9.23;2.33;;;;;;;22.26;55.37;100660.50;4970710;28;100538;-72
2022/10/24 10:23:43;;;;;;;10.88;2.63;;;;;;;22.39;55.13;100650.38;4971433;28;100851;-73
2022/10/24 10:26:19;;;;;;;8.15;2.13;;;;;;;22.43;55.18;100662.63;4968853;28;97377;-72
2022/10/24 10:28:56;;;;;;;8.95;2.35;;;;;;;22.75;54.13;100662.53;4969640;28;97294;-72
2022/10/24 10:31:26;;;;;;;12.13;2.55;;;;;;;22.78;54.33;100666.78;4971638;28;100111;-72
2022/10/24 10:34:14;;;;;;;12.93;2.35;;;;;;;22.65;54.28;100657.06;4969915;28;98536;-72
2022/10/24 10:36:54;;;;;;;12.90;2.55;;;;;;;22.80;54.13;100646.81;4969434;28;98042;-72
2022/10/24 10:39:40;;;;;;;12.38;3.53;;;;;;;22.86;53.78;100650.81;4972107;28;96950;-71
2022/10/24 10:42:13;;;;;;;11.70;2.53;;;;;;;22.83;54.00;100660.03;4968422;28;98353;-72
2022/10/24 10:44:53;;;;;;;10.90;3.10;;;;;;;22.68;54.24;100658.63;4966202;28;98900;-73
2022/10/24 10:47:34;;;;;;;12.23;2.83;;;;;;;22.76;54.00;100652.63;4970183;28;97840;-71
2022/10/24 10:50:05;;;;;;;13.55;2.80;;;;;;;22.69;53.86;100654.09;4971428;28;97889;-71
2022/10/24 10:52:32;;;;;;;10.68;2.20;;;;;;;22.62;54.04;100660.03;4964524;28;98925;-71
2022/10/24 10:55:14;;;;;;;15.98;3.17;;;;;;;22.54;54.48;100657.16;4970939;28;98870;-72
2022/10/24 10:57:47;;;;;;;9.75;2.50;;;;;;;22.67;54.36;100654.22;4971173;28;98921;-72
2022/10/24 11:00:16;;;;;;;12.90;3.28;;;;;;;22.72;54.16;100645.75;4967790;28;97719;-73
2022/10/24 11:02:54;;;;;;;20.83;3.40;;;;;;;22.72;54.01;100653.81;4965792;28;99125;-71
2022/10/24 11:05:33;;;;;;;12.55;2.72;;;;;;;22.53;54.06;100651.88;4972126;28;99206;-72
2022/10/24 11:08:09;;;;;;;15.05;2.60;;;;;;;22.70;53.87;100647.75;4967642;28;97263;-72
2022/10/24 11:10:41;;;;;;;15.18;2.95;;;;;;;22.69;53.95;100652.28;4971930;28;96954;-73
2022/10/24 11:13:16;;;;;;;17.60;4.28;;;;;;;22.73;54.22;100639.41;4969572;28;101871;-73
2022/10/24 11:15:48;;;;;;;10.45;2.60;;;;;;;23.00;53.09;100642.34;4971846;28;99027;-73
2022/10/24 11:18:20;;;;;;;15.00;2.50;;;;;;;22.93;52.94;100638.50;4970462;28;96895;-73
2022/10/24 11:20:50;;;;;;;12.07;2.67;;;;;;;22.97;52.68;100637.25;4970593;28;96922;-73
2022/10/24 11:23:24;;;;;;;11.90;2.28;;;;;;;22.92;52.50;100634.94;4969061;28;101847;-72
2022/10/24 11:25:56;;;;;;;16.55;2.85;;;;;;;22.64;53.49;100638.34;4967342;28;98844;-72
2022/10/24 11:28:29;;;;;;;11.98;2.83;;;;;;;22.65;53.41;100648.13;4967363;28;97090;-73